Time;durP1;ratioP1;P1;durP2;ratioP2;P2;SDS_P1;SDS_P2;PMS_P1;PMS_P2;Temp;Humidity;BMP_temperature;BMP_pressure;BME280_temperature;BME280_humidity;BME280_pressure;Samples;Min_cycle;Max_cycle;Signal;HPM_P1;HPM_P2
2023/07/31 00:01:06;;;;;;;10.30;4.65;;;;;;;-141.23;100.00;62281.09;4999105;28;20045;-76
2023/07/31 00:03:32;;;;;;;15.90;4.55;;;;;;;-141.23;100.00;62281.09;5015184;28;20045;-76
2023/07/31 00:05:58;;;;;;;10.73;4.53;;;;;;;-141.23;100.00;62281.09;5016537;28;20060;-75
2023/07/31 00:08:25;;;;;;;9.27;4.90;;;;;;;-141.23;100.00;62281.09;5000952;28;20037;-75
2023/07/31 00:10:54;;;;;;;10.45;5.00;;;;;;;-141.23;100.00;62281.09;5002048;28;20049;-75
2023/07/31 00:13:19;;;;;;;13.63;4.90;;;;;;;-141.23;100.00;62281.09;5035406;28;20065;-75
2023/07/31 00:15:45;;;;;;;15.93;4.78;;;;;;;-141.23;100.00;62281.09;5052023;28;20369;-76
2023/07/31 00:18:11;;;;;;;11.10;4.70;;;;;;;-141.23;100.00;62281.09;5053363;28;20045;-76
2023/07/31 00:20:37;;;;;;;13.15;4.55;;;;;;;-141.23;100.00;62281.09;5035492;28;20052;-76
2023/07/31 00:23:03;;;;;;;9.32;4.68;;;;;;;-141.23;100.00;62281.09;5052062;28;20506;-76
2023/07/31 00:25:29;;;;;;;13.30;4.78;;;;;;;-141.23;100.00;62281.09;5035390;28;20041;-76
2023/07/31 00:27:55;;;;;;;14.73;5.28;;;;;;;-141.23;100.00;62281.09;5019138;28;20505;-76
2023/07/31 00:30:22;;;;;;;13.43;4.90;;;;;;;-141.23;100.00;62281.09;5034693;28;20430;-74
2023/07/31 00:32:48;;;;;;;12.68;5.03;;;;;;;-141.23;100.00;62281.09;5035349;28;20041;-75
2023/07/31 00:35:14;;;;;;;10.57;4.60;;;;;;;-141.23;100.00;62281.09;5017753;28;20526;-76
2023/07/31 00:37:40;;;;;;;9.82;4.90;;;;;;;-141.23;100.00;62281.09;5011214;28;20129;-75
2023/07/31 00:40:06;;;;;;;10.30;4.50;;;;;;;-141.23;100.00;62281.09;4994470;28;20140;-76
2023/07/31 00:42:32;;;;;;;11.15;4.30;;;;;;;-141.23;100.00;62281.09;5010850;28;20412;-75
2023/07/31 00:44:58;;;;;;;7.97;4.70;;;;;;;-141.23;100.00;62281.09;4978254;28;20038;-76
2023/07/31 00:47:23;;;;;;;7.63;4.63;;;;;;;-141.23;100.00;62281.09;5011007;28;20049;-76
2023/07/31 00:49:49;;;;;;;9.95;4.30;;;;;;;-141.23;100.00;62281.09;4994558;28;20145;-76
2023/07/31 00:52:16;;;;;;;11.27;4.50;;;;;;;-141.23;100.00;62281.09;4978553;28;20049;-76
2023/07/31 00:54:41;;;;;;;7.57;4.07;;;;;;;-141.23;100.00;62281.09;5011063;28;20535;-76
2023/07/31 00:57:08;;;;;;;7.78;4.32;;;;;;;-141.23;100.00;62281.09;4978464;28;20041;-76
2023/07/31 00:59:34;;;;;;;8.73;4.57;;;;;;;-141.23;100.00;62281.09;5010889;28;20068;-76
2023/07/31 01:02:00;;;;;;;8.25;4.25;;;;;;;-141.23;100.00;62281.09;4994582;28;20065;-76
2023/07/31 01:04:26;;;;;;;8.07;4.00;;;;;;;-141.23;100.00;62281.09;4978558;28;20542;-75
2023/07/31 01:07:00;;;;;;;13.30;4.70;;;;;;;-141.23;100.00;62281.09;5026662;28;20065;-75
2023/07/31 01:09:47;;;;;;;13.02;4.72;;;;;;;-141.23;100.00;62281.09;5033773;28;20355;-76
2023/07/31 01:12:16;;;;;;;9.55;4.28;;;;;;;-141.23;100.00;62281.09;5053673;28;20083;-76
2023/07/31 01:15:04;;;;;;;9.27;4.28;;;;;;;-141.23;100.00;62281.09;5035167;28;20048;-76
2023/07/31 01:17:33;;;;;;;8.75;3.90;;;;;;;-141.23;100.00;62281.09;5035324;28;20040;-74
2023/07/31 01:20:03;;;;;;;11.02;4.60;;;;;;;-141.23;100.00;62281.09;5035148;28;20068;-76
2023/07/31 01:22:46;;;;;;;14.05;3.72;;;;;;;-141.23;100.00;62281.09;5035042;28;20044;-76
2023/07/31 01:25:28;;;;;;;7.70;4.30;;;;;;;-141.23;100.00;62281.09;5052332;28;20051;-76
2023/07/31 01:28:15;;;;;;;8.05;4.20;;;;;;;-141.23;100.00;62281.09;5018676;28;20052;-75
2023/07/31 01:30:44;;;;;;;9.63;3.92;;;;;;;-141.23;100.00;62281.09;5034978;28;20048;-75
2023/07/31 01:33:10;;;;;;;10.68;3.45;;;;;;;-141.23;100.00;62281.09;5051542;28;20044;-75
2023/07/31 01:35:37;;;;;;;5.68;3.70;;;;;;;-141.23;100.00;62281.09;5052012;28;20566;-74
2023/07/31 01:38:03;;;;;;;9.68;3.78;;;;;;;-141.23;100.00;62281.09;5051989;28;20079;-75
2023/07/31 01:40:28;;;;;;;9.73;4.60;;;;;;;-141.23;100.00;62281.09;5050990;28;20068;-75
2023/07/31 01:42:54;;;;;;;5.65;3.78;;;;;;;-141.23;100.00;62281.09;5054405;28;20379;-75
2023/07/31 01:45:20;;;;;;;5.40;3.83;;;;;;;-141.23;100.00;62281.09;5038557;28;20048;-74
2023/07/31 01:47:46;;;;;;;12.00;4.35;;;;;;;-141.23;100.00;62281.09;5038662;28;20045;-75
2023/07/31 01:50:12;;;;;;;7.60;4.15;;;;;;;-141.23;100.00;62281.09;5054778;28;20510;-75
2023/07/31 01:52:38;;;;;;;11.32;3.75;;;;;;;-141.23;100.00;62281.09;5021774;28;20040;-76
2023/07/31 01:55:04;;;;;;;7.68;4.25;;;;;;;-141.23;100.00;62281.09;5055725;28;20063;-76
2023/07/31 01:57:30;;;;;;;11.20;4.07;;;;;;;-141.23;100.00;62281.09;5037973;28;20041;-74
2023/07/31 01:59:56;;;;;;;10.50;3.53;;;;;;;-141.23;100.00;62281.09;5021693;28;20107;-74
2023/07/31 02:02:23;;;;;;;7.20;3.88;;;;;;;-141.23;100.00;62281.09;5054571;28;20049;-75
2023/07/31 02:04:49;;;;;;;8.25;3.72;;;;;;;-141.23;100.00;62281.09;5055622;28;20037;-75
2023/07/31 02:07:14;;;;;;;9.40;3.67;;;;;;;-141.23;100.00;62281.09;5054389;28;20444;-74
2023/07/31 02:09:40;;;;;;;6.25;3.45;;;;;;;-141.23;100.00;62281.09;5054435;28;20136;-74
2023/07/31 02:12:08;;;;;;;8.75;3.72;;;;;;;-141.23;100.00;62281.09;5054845;28;20037;-75
2023/07/31 02:14:34;;;;;;;6.93;3.35;;;;;;;-141.23;100.00;62281.09;5041553;28;20060;-75
2023/07/31 02:17:01;;;;;;;6.57;3.90;;;;;;;-141.23;100.00;62281.09;5055410;28;20467;-74
2023/07/31 02:19:46;;;;;;;7.85;3.40;;;;;;;-141.23;100.00;62281.09;5027410;28;20036;-75
2023/07/31 02:22:12;;;;;;;6.15;3.30;;;;;;;-141.23;100.00;62281.09;5037590;28;20135;-76
2023/07/31 02:24:38;;;;;;;5.47;3.13;;;;;;;-141.23;100.00;62281.09;5054871;28;20087;-75
2023/07/31 02:27:04;;;;;;;7.05;3.15;;;;;;;-141.23;100.00;62281.09;5037494;28;20040;-75
2023/07/31 02:29:30;;;;;;;5.10;3.22;;;;;;;-141.23;100.00;62281.09;5020783;28;20451;-75
2023/07/31 02:31:56;;;;;;;9.43;3.15;;;;;;;-141.23;100.00;62281.09;5054861;28;20079;-75
2023/07/31 02:34:22;;;;;;;6.60;3.47;;;;;;;-141.23;100.00;62281.09;5054627;28;20047;-70
2023/07/31 02:36:47;;;;;;;9.95;3.53;;;;;;;-141.23;100.00;62281.09;5054021;28;20131;-75
2023/07/31 02:39:13;;;;;;;7.97;3.30;;;;;;;-141.23;100.00;62281.09;5054624;28;20128;-75
2023/07/31 02:41:39;;;;;;;7.13;3.38;;;;;;;-141.23;100.00;62281.09;5037245;28;20045;-75
2023/07/31 02:44:06;;;;;;;6.45;3.42;;;;;;;-141.23;100.00;62281.09;5037473;28;20045;-75
2023/07/31 02:46:31;;;;;;;7.88;3.28;;;;;;;-141.23;100.00;62281.09;5037311;28;20106;-76
2023/07/31 02:48:58;;;;;;;7.93;3.42;;;;;;;-141.23;100.00;62281.09;5053759;28;20040;-76
2023/07/31 02:51:23;;;;;;;8.50;3.40;;;;;;;-141.23;100.00;62281.09;5053768;28;20053;-75
2023/07/31 02:53:49;;;;;;;6.72;3.20;;;;;;;-141.23;100.00;62281.09;5053509;28;20486;-75
2023/07/31 02:56:15;;;;;;;7.95;3.92;;;;;;;-141.23;100.00;62281.09;5054168;28;20076;-76
2023/07/31 02:58:41;;;;;;;12.43;4.00;;;;;;;-141.23;100.00;62281.09;5057018;28;20378;-77
2023/07/31 03:01:06;;;;;;;7.25;3.90;;;;;;;-141.23;100.00;62281.09;5055979;28;20037;-77
2023/07/31 03:03:33;;;;;;;9.32;3.70;;;;;;;-141.23;100.00;62281.09;5054481;28;20451;-76
2023/07/31 03:05:59;;;;;;;8.80;4.13;;;;;;;-141.23;100.00;62281.09;5037272;28;20036;-76
2023/07/31 03:08:25;;;;;;;7.72;4.38;;;;;;;-141.23;100.00;62281.09;5054620;28;20049;-75
2023/07/31 03:10:51;;;;;;;11.32;3.95;;;;;;;-141.23;100.00;62281.09;5054855;28;20049;-75
2023/07/31 03:13:17;;;;;;;12.30;4.13;;;;;;;-141.23;100.00;62281.09;5036640;28;20481;-75
2023/07/31 03:15:43;;;;;;;6.35;3.65;;;;;;;-141.23;100.00;62281.09;5054473;28;20071;-76
2023/07/31 03:18:09;;;;;;;11.43;4.50;;;;;;;-141.23;100.00;62281.09;5053838;28;20101;-76
2023/07/31 03:20:35;;;;;;;12.70;4.50;;;;;;;-141.23;100.00;62281.09;5054261;28;20369;-76
2023/07/31 03:23:01;;;;;;;8.48;4.35;;;;;;;-141.23;100.00;62281.09;5036781;28;20041;-76
2023/07/31 03:25:27;;;;;;;10.32;4.38;;;;;;;-141.23;100.00;62281.09;5053154;28;20048;-75
2023/07/31 03:27:53;;;;;;;8.50;3.88;;;;;;;-141.23;100.00;62281.09;5036747;28;20052;-76
2023/07/31 03:30:19;;;;;;;7.43;4.15;;;;;;;-141.23;100.00;62281.09;5052903;28;20502;-75
2023/07/31 03:32:45;;;;;;;12.23;4.22;;;;;;;-141.23;100.00;62281.09;5036284;28;20041;-76
2023/07/31 03:35:11;;;;;;;11.77;5.25;;;;;;;-141.23;100.00;62281.09;5036018;28;20048;-76
2023/07/31 03:37:37;;;;;;;15.20;4.95;;;;;;;-141.23;100.00;62281.09;5053649;28;20458;-76
2023/07/31 03:40:04;;;;;;;11.52;4.57;;;;;;;-141.23;100.00;62281.09;5037089;28;20049;-76
2023/07/31 03:42:30;;;;;;;10.68;3.92;;;;;;;-141.23;100.00;62281.09;5038470;28;20052;-74
2023/07/31 03:44:56;;;;;;;8.32;3.85;;;;;;;-141.23;100.00;62281.09;5022196;28;20438;-75
2023/07/31 03:47:23;;;;;;;6.68;3.97;;;;;;;-141.23;100.00;62281.09;5004975;28;20102;-75
2023/07/31 03:49:48;;;;;;;9.48;4.15;;;;;;;-141.23;100.00;62281.09;5037586;28;20044;-76
2023/07/31 03:52:15;;;;;;;14.68;5.05;;;;;;;-141.23;100.00;62281.09;5039180;28;20106;-75
2023/07/31 03:54:40;;;;;;;12.90;4.78;;;;;;;-141.23;100.00;62281.09;5054951;28;20040;-73
2023/07/31 03:57:06;;;;;;;13.75;4.07;;;;;;;-141.23;100.00;62281.09;5036571;28;20041;-76
2023/07/31 03:59:32;;;;;;;9.65;4.70;;;;;;;-141.23;100.00;62281.09;5019951;28;20041;-75
2023/07/31 04:02:00;;;;;;;9.93;4.30;;;;;;;-141.23;100.00;62281.09;5036703;28;20499;-75
2023/07/31 04:04:25;;;;;;;10.27;4.53;;;;;;;-141.23;100.00;62281.09;5053029;28;20075;-74
2023/07/31 04:06:51;;;;;;;20.98;5.65;;;;;;;-141.23;100.00;62281.09;5035598;28;20080;-75
2023/07/31 04:09:17;;;;;;;9.35;4.30;;;;;;;-141.23;100.00;62281.09;5052224;28;20096;-74
2023/07/31 04:11:43;;;;;;;8.45;4.50;;;;;;;-141.23;100.00;62281.09;5052139;28;20045;-75
2023/07/31 04:14:09;;;;;;;12.32;4.35;;;;;;;-141.23;100.00;62281.09;5035591;28;20088;-76
2023/07/31 04:16:35;;;;;;;14.77;4.30;;;;;;;-141.23;100.00;62281.09;5052381;28;20072;-75
2023/07/31 04:19:02;;;;;;;8.00;3.95;;;;;;;-141.23;100.00;62281.09;5036620;28;20520;-75
2023/07/31 04:21:29;;;;;;;10.02;3.72;;;;;;;-141.23;100.00;62281.09;5037274;28;20045;-74
2023/07/31 04:23:56;;;;;;;6.90;4.05;;;;;;;-141.23;100.00;62281.09;5053670;28;20045;-74
2023/07/31 04:26:22;;;;;;;11.38;4.38;;;;;;;-141.23;100.00;62281.09;5002969;28;20113;-75
2023/07/31 04:28:48;;;;;;;9.98;4.43;;;;;;;-141.23;100.00;62281.09;5052117;28;20041;-75
2023/07/31 04:31:13;;;;;;;19.88;6.53;;;;;;;-141.23;100.00;62281.09;5035469;28;20037;-75
2023/07/31 04:33:40;;;;;;;15.18;6.80;;;;;;;-141.23;100.00;62281.09;5035517;28;20391;-75
2023/07/31 04:36:06;;;;;;;11.13;6.13;;;;;;;-141.23;100.00;62281.09;5052562;28;20045;-75
2023/07/31 04:38:33;;;;;;;13.20;6.53;;;;;;;-141.23;100.00;62281.09;5019271;28;20037;-76
2023/07/31 04:40:59;;;;;;;14.70;6.00;;;;;;;-141.23;100.00;62281.09;5035812;28;20037;-74
2023/07/31 04:43:25;;;;;;;11.88;4.95;;;;;;;-141.23;100.00;62281.09;5052299;28;20055;-75
2023/07/31 04:45:50;;;;;;;9.75;4.53;;;;;;;-141.23;100.00;62281.09;5052029;28;20068;-75
2023/07/31 04:48:16;;;;;;;11.55;5.00;;;;;;;-141.23;100.00;62281.09;5052536;28;20040;-75
2023/07/31 04:50:42;;;;;;;14.13;4.57;;;;;;;-141.23;100.00;62281.09;5051299;28;20049;-75
2023/07/31 04:53:08;;;;;;;8.80;4.60;;;;;;;-141.23;100.00;62281.09;5052282;28;20048;-76
2023/07/31 04:55:34;;;;;;;7.95;4.03;;;;;;;-141.23;100.00;62281.09;5052780;28;20041;-75
2023/07/31 04:58:00;;;;;;;8.23;3.88;;;;;;;-141.23;100.00;62281.09;5002234;28;20041;-73
2023/07/31 05:00:25;;;;;;;9.60;4.05;;;;;;;-141.23;100.00;62281.09;5051763;28;20037;-75
2023/07/31 05:02:52;;;;;;;8.95;4.10;;;;;;;-141.23;100.00;62281.09;5051535;28;20048;-76
2023/07/31 05:05:18;;;;;;;9.48;4.00;;;;;;;-141.23;100.00;62281.09;5052792;28;20113;-75
2023/07/31 05:07:43;;;;;;;15.15;4.30;;;;;;;-141.23;100.00;62281.09;5051532;28;20544;-75
2023/07/31 05:10:09;;;;;;;10.30;3.97;;;;;;;-141.23;100.00;62281.09;5052385;28;20045;-76
2023/07/31 05:12:35;;;;;;;13.00;3.85;;;;;;;-141.23;100.00;62281.09;5034378;28;20075;-75
2023/07/31 05:15:01;;;;;;;11.65;4.30;;;;;;;-141.23;100.00;62281.09;5051302;28;20045;-74
2023/07/31 05:17:32;;;;;;;9.05;3.38;;;;;;;-141.23;100.00;62281.09;5023892;28;20194;-75
2023/07/31 05:19:58;;;;;;;7.03;3.90;;;;;;;-141.23;100.00;62281.09;5056094;28;20052;-75
2023/07/31 05:22:24;;;;;;;8.63;3.72;;;;;;;-141.23;100.00;62281.09;5055430;28;20131;-75
2023/07/31 05:24:49;;;;;;;10.88;3.17;;;;;;;-141.23;100.00;62281.09;5022733;28;20118;-76
2023/07/31 05:27:18;;;;;;;8.45;3.30;;;;;;;-141.23;100.00;62281.09;5056489;28;20071;-76
2023/07/31 05:29:44;;;;;;;8.30;3.08;;;;;;;-141.23;100.00;62281.09;5055175;28;20068;-76
2023/07/31 05:32:10;;;;;;;10.07;3.40;;;;;;;-141.23;100.00;62281.09;5021851;28;20132;-76
2023/07/31 05:34:36;;;;;;;5.18;3.20;;;;;;;-141.23;100.00;62281.09;5021922;28;20519;-76
2023/07/31 05:37:02;;;;;;;5.93;3.13;;;;;;;-141.23;100.00;62281.09;5038657;28;20051;-73
2023/07/31 05:39:27;;;;;;;10.07;3.38;;;;;;;-141.23;100.00;62281.09;5054946;28;20037;-75
2023/07/31 05:41:53;;;;;;;8.45;3.17;;;;;;;-141.23;100.00;62281.09;5037887;28;20095;-77
2023/07/31 05:44:19;;;;;;;6.82;2.88;;;;;;;-141.23;100.00;62281.09;5055127;28;20048;-75
2023/07/31 05:46:45;;;;;;;7.10;3.22;;;;;;;-141.23;100.00;62281.09;5055080;28;20037;-76
2023/07/31 05:49:11;;;;;;;7.85;2.90;;;;;;;-141.23;100.00;62281.09;5055050;28;20037;-76
2023/07/31 05:51:36;;;;;;;9.77;2.88;;;;;;;-141.23;100.00;62281.09;5005663;28;20048;-76
2023/07/31 05:54:03;;;;;;;7.03;2.85;;;;;;;-141.23;100.00;62281.09;5022188;28;20406;-77
2023/07/31 05:56:28;;;;;;;8.40;2.78;;;;;;;-141.23;100.00;62281.09;5054915;28;20052;-77
2023/07/31 05:58:54;;;;;;;7.95;2.97;;;;;;;-141.23;100.00;62281.09;5054824;28;20530;-76
2023/07/31 06:01:21;;;;;;;8.68;3.72;;;;;;;-141.23;100.00;62281.09;5038446;28;20041;-75
2023/07/31 06:03:47;;;;;;;6.75;2.67;;;;;;;-141.23;100.00;62281.09;5054719;28;20041;-76
2023/07/31 06:06:13;;;;;;;6.07;2.75;;;;;;;-141.23;100.00;62281.09;5038379;28;20040;-76
2023/07/31 06:08:39;;;;;;;5.55;2.28;;;;;;;-141.23;100.00;62281.09;5038493;28;20052;-76
2023/07/31 06:11:06;;;;;;;8.23;2.13;;;;;;;-141.23;100.00;62281.09;5037780;28;20135;-76
2023/07/31 06:13:31;;;;;;;7.97;2.80;;;;;;;-141.23;100.00;62281.09;5037895;28;20068;-76
2023/07/31 06:15:59;;;;;;;5.47;2.80;;;;;;;-141.23;100.00;62281.09;5054538;28;20049;-76
2023/07/31 06:18:24;;;;;;;7.57;2.95;;;;;;;-141.23;100.00;62281.09;5037678;28;20047;-75
2023/07/31 06:20:53;;;;;;;9.65;2.58;;;;;;;-141.23;100.00;62281.09;5054079;28;20054;-76
2023/07/31 06:23:20;;;;;;;10.18;3.25;;;;;;;-141.23;100.00;62281.09;5021400;28;20460;-76
2023/07/31 06:25:46;;;;;;;3.13;1.92;;;;;;;-141.23;100.00;62281.09;5021541;28;20479;-76
2023/07/31 06:28:12;;;;;;;8.45;2.20;;;;;;;-141.23;100.00;62281.09;5055956;28;20049;-76
2023/07/31 06:30:37;;;;;;;5.28;2.13;;;;;;;-141.23;100.00;62281.09;5038918;28;20067;-76
2023/07/31 06:33:04;;;;;;;8.57;2.50;;;;;;;-141.23;100.00;62281.09;5020765;28;20071;-76
2023/07/31 06:35:30;;;;;;;9.35;2.90;;;;;;;-141.23;100.00;62281.09;5054000;28;20498;-75
2023/07/31 06:37:56;;;;;;;5.85;2.53;;;;;;;-141.23;100.00;62281.09;5037335;28;20128;-76
2023/07/31 06:40:22;;;;;;;7.38;2.25;;;;;;;-141.23;100.00;62281.09;5020354;28;20456;-76
2023/07/31 06:42:48;;;;;;;7.38;2.33;;;;;;;-141.23;100.00;62281.09;5053661;28;20048;-76
2023/07/31 06:45:13;;;;;;;2.45;1.50;;;;;;;-141.23;100.00;62281.09;5054586;28;20045;-76
2023/07/31 06:47:40;;;;;;;7.18;2.05;;;;;;;-141.23;100.00;62281.09;4999987;28;20057;-74
2023/07/31 06:50:07;;;;;;;4.88;2.00;;;;;;;-141.23;100.00;62281.09;5000284;28;20045;-76
2023/07/31 06:52:32;;;;;;;4.60;1.70;;;;;;;-141.23;100.00;62281.09;5000027;28;20479;-76
2023/07/31 06:55:19;;;;;;;7.05;2.10;;;;;;;-141.23;100.00;62281.09;5032767;28;20163;-76
2023/07/31 06:57:47;;;;;;;6.97;2.22;;;;;;;-141.23;100.00;62281.09;5016280;28;20049;-75
2023/07/31 07:00:13;;;;;;;9.25;1.85;;;;;;;-141.23;100.00;62281.09;5032463;28;20045;-76
2023/07/31 07:02:39;;;;;;;6.13;2.70;;;;;;;-141.23;100.00;62281.09;4999285;28;20114;-75
2023/07/31 07:05:06;;;;;;;4.40;1.63;;;;;;;-141.23;100.00;62281.09;5032767;28;20041;-76
2023/07/31 07:07:32;;;;;;;4.70;1.60;;;;;;;-141.23;100.00;62281.09;4999912;28;20136;-76
2023/07/31 07:09:59;;;;;;;3.78;2.65;;;;;;;-141.23;100.00;62281.09;5032946;28;20161;-75
2023/07/31 07:12:30;;;;;;;2.90;2.20;;;;;;;-141.23;100.00;62281.09;5032484;28;20053;-75
2023/07/31 07:14:57;;;;;;;1.70;1.23;;;;;;;-141.23;100.00;62281.09;4999396;28;20056;-76
2023/07/31 07:17:24;;;;;;;5.30;2.25;;;;;;;-141.23;100.00;62281.09;5016096;28;20376;-75
2023/07/31 07:19:50;;;;;;;8.98;2.50;;;;;;;-141.23;100.00;62281.09;5036150;28;20040;-75
2023/07/31 07:22:16;;;;;;;2.80;1.50;;;;;;;-141.23;100.00;62281.09;5053829;28;20056;-76
2023/07/31 07:24:42;;;;;;;5.53;1.75;;;;;;;-141.23;100.00;62281.09;5019692;28;20041;-75
2023/07/31 07:27:08;;;;;;;7.45;1.80;;;;;;;-141.23;100.00;62281.09;5036503;28;20052;-72
2023/07/31 07:29:34;;;;;;;3.15;1.33;;;;;;;-141.23;100.00;62281.09;5036915;28;20044;-77
2023/07/31 07:32:00;;;;;;;2.30;1.20;;;;;;;-141.23;100.00;62281.09;5053388;28;20041;-77
2023/07/31 07:34:27;;;;;;;3.22;2.80;;;;;;;-141.23;100.00;62281.09;5003718;28;20067;-76
2023/07/31 07:36:54;;;;;;;3.92;1.85;;;;;;;-141.23;100.00;62281.09;5053973;28;20045;-75
2023/07/31 07:39:20;;;;;;;4.28;2.05;;;;;;;-141.23;100.00;62281.09;5053147;28;20044;-76
2023/07/31 07:41:46;;;;;;;4.18;1.55;;;;;;;-141.23;100.00;62281.09;5052818;28;20102;-77
2023/07/31 07:44:12;;;;;;;6.40;1.60;;;;;;;-141.23;100.00;62281.09;5035983;28;20051;-76
2023/07/31 07:46:39;;;;;;;3.17;1.40;;;;;;;-141.23;100.00;62281.09;5035998;28;20098;-77
2023/07/31 07:49:04;;;;;;;7.20;1.40;;;;;;;-141.23;100.00;62281.09;5036644;28;20041;-78
2023/07/31 07:51:31;;;;;;;3.20;1.20;;;;;;;-141.23;100.00;62281.09;5052553;28;20040;-76
2023/07/31 07:54:01;;;;;;;4.45;1.25;;;;;;;-141.23;100.00;62281.09;5019496;28;20132;-77
2023/07/31 07:56:27;;;;;;;5.15;1.20;;;;;;;-141.23;100.00;62281.09;5052196;28;20105;-76
2023/07/31 07:58:53;;;;;;;5.18;1.20;;;;;;;-141.23;100.00;62281.09;5035534;28;20064;-77
2023/07/31 08:01:20;;;;;;;2.40;1.00;;;;;;;-141.23;100.00;62281.09;5052174;28;20106;-77
2023/07/31 08:03:47;;;;;;;5.72;1.77;;;;;;;-141.23;100.00;62281.09;5052499;28;20032;-76
2023/07/31 08:06:14;;;;;;;4.95;1.35;;;;;;;-141.23;100.00;62281.09;5019660;28;20045;-76
2023/07/31 08:08:42;;;;;;;4.85;1.10;;;;;;;-141.23;100.00;62281.09;5052507;28;20140;-75
2023/07/31 08:11:07;;;;;;;4.90;1.35;;;;;;;-141.23;100.00;62281.09;5035045;28;20036;-77
2023/07/31 08:13:33;;;;;;;4.10;1.13;;;;;;;-141.23;100.00;62281.09;5017420;28;20049;-77
2023/07/31 08:16:00;;;;;;;4.80;1.00;;;;;;;-141.23;100.00;62281.09;5034362;28;20140;-77
2023/07/31 08:18:26;;;;;;;2.42;1.20;;;;;;;-141.23;100.00;62281.09;5051247;28;20110;-77
2023/07/31 08:20:52;;;;;;;2.00;0.95;;;;;;;-141.23;100.00;62281.09;5034600;28;20088;-77
2023/07/31 08:23:18;;;;;;;4.63;1.15;;;;;;;-141.23;100.00;62281.09;5034981;28;20079;-77
2023/07/31 08:25:45;;;;;;;2.97;1.08;;;;;;;-141.23;100.00;62281.09;5051645;28;20053;-78
2023/07/31 08:28:10;;;;;;;4.43;0.90;;;;;;;-141.23;100.00;62281.09;5034339;28;20055;-78
2023/07/31 08:30:36;;;;;;;4.70;1.05;;;;;;;-141.23;100.00;62281.09;5001696;28;20049;-78
2023/07/31 08:33:03;;;;;;;2.00;1.13;;;;;;;-141.23;100.00;62281.09;5017854;28;20059;-77
2023/07/31 08:35:29;;;;;;;1.27;1.10;;;;;;;-141.23;100.00;62281.09;5036511;28;20317;-78
2023/07/31 08:37:54;;;;;;;2.80;0.93;;;;;;;-141.23;100.00;62281.09;5020399;28;20048;-78
2023/07/31 08:40:24;;;;;;;3.90;1.20;;;;;;;-141.23;100.00;62281.09;5035355;28;20047;-78
2023/07/31 08:42:54;;;;;;;1.60;1.10;;;;;;;-141.23;100.00;62281.09;5047469;28;20344;-78
2023/07/31 08:45:20;;;;;;;3.88;1.00;;;;;;;-141.23;100.00;62281.09;5035002;28;20102;-78
2023/07/31 08:47:51;;;;;;;2.67;1.02;;;;;;;-141.23;100.00;62281.09;5051653;28;20032;-78
2023/07/31 08:50:19;;;;;;;1.95;1.10;;;;;;;-141.23;100.00;62281.09;5051368;28;20047;-78
2023/07/31 08:52:50;;;;;;;3.60;1.20;;;;;;;-141.23;100.00;62281.09;5051392;28;20045;-78
2023/07/31 08:55:16;;;;;;;1.20;0.85;;;;;;;-141.23;100.00;62281.09;5051316;28;20044;-78
2023/07/31 08:57:42;;;;;;;2.05;1.08;;;;;;;-141.23;100.00;62281.09;5034999;28;20369;-78
2023/07/31 09:00:10;;;;;;;1.58;0.93;;;;;;;-141.23;100.00;62281.09;5034924;28;20566;-77
2023/07/31 09:02:45;;;;;;;3.95;1.10;;;;;;;-141.23;100.00;62281.09;5051210;28;20036;-79
2023/07/31 09:05:12;;;;;;;2.58;1.00;;;;;;;-141.23;100.00;62281.09;5035318;28;20045;-79
2023/07/31 09:07:38;;;;;;;3.90;1.20;;;;;;;-141.23;100.00;62281.09;5018332;28;20360;-79
2023/07/31 09:10:05;;;;;;;6.50;1.20;;;;;;;-141.23;100.00;62281.09;5051281;28;20422;-79
2023/07/31 09:12:31;;;;;;;3.63;1.17;;;;;;;-141.23;100.00;62281.09;5051955;28;20498;-79
2023/07/31 09:14:58;;;;;;;4.53;1.00;;;;;;;-141.23;100.00;62281.09;5018230;28;20067;-78
2023/07/31 09:17:36;;;;;;;2.63;0.90;;;;;;;-141.23;100.00;62281.09;5034682;28;20460;-79
2023/07/31 09:20:16;;;;;;;4.43;1.10;;;;;;;-141.23;100.00;62281.09;5035129;28;20052;-79
2023/07/31 09:22:43;;;;;;;1.08;0.80;;;;;;;-141.23;100.00;62281.09;5051377;28;20044;-79
2023/07/31 09:25:18;;;;;;;2.42;1.05;;;;;;;-141.23;100.00;62281.09;5034714;28;20094;-80
2023/07/31 09:27:58;;;;;;;2.60;0.97;;;;;;;-141.23;100.00;62281.09;5052067;28;20113;-78
2023/07/31 09:30:24;;;;;;;3.05;1.10;;;;;;;-141.23;100.00;62281.09;5051019;28;20069;-79
2023/07/31 09:32:52;;;;;;;1.23;0.80;;;;;;;-141.23;100.00;62281.09;4997094;28;20766;-79
2023/07/31 09:35:22;;;;;;;1.10;1.00;;;;;;;-141.23;100.00;62281.09;5030296;28;20045;-79
2023/07/31 09:37:53;;;;;;;2.33;1.15;;;;;;;-141.23;100.00;62281.09;5030054;28;20148;-79
2023/07/31 09:40:48;;;;;;;3.53;1.20;;;;;;;-141.23;100.00;62281.09;5013788;28;20049;-78
2023/07/31 09:43:19;;;;;;;1.67;1.10;;;;;;;-141.23;100.00;62281.09;4980274;28;20144;-78
2023/07/31 09:45:45;;;;;;;1.80;1.02;;;;;;;-141.23;100.00;62281.09;5013602;28;20042;-79
2023/07/31 09:48:16;;;;;;;3.42;1.05;;;;;;;-141.23;100.00;62281.09;5030518;28;20038;-79
2023/07/31 09:50:44;;;;;;;1.90;0.90;;;;;;;-141.23;100.00;62281.09;5013823;28;20488;-79
2023/07/31 09:53:10;;;;;;;2.85;0.90;;;;;;;-141.23;100.00;62281.09;5013234;28;20053;-78
2023/07/31 09:55:37;;;;;;;1.67;1.17;;;;;;;-141.23;100.00;62281.09;4997165;28;20465;-79
2023/07/31 09:58:05;;;;;;;1.98;1.15;;;;;;;-141.23;100.00;62281.09;4996858;28;20056;-80
2023/07/31 10:00:31;;;;;;;4.30;1.27;;;;;;;-141.23;100.00;62281.09;5013350;28;20045;-79
2023/07/31 10:03:10;;;;;;;3.08;1.08;;;;;;;-141.23;100.00;62281.09;5015101;28;20045;-79
2023/07/31 10:05:47;;;;;;;1.92;1.10;;;;;;;-141.23;100.00;62281.09;5016913;28;20339;-79
2023/07/31 10:08:14;;;;;;;1.77;0.98;;;;;;;-141.23;100.00;62281.09;5017924;28;20049;-79
2023/07/31 10:10:44;;;;;;;2.10;0.90;;;;;;;-141.23;100.00;62281.09;5027568;28;20604;-79
2023/07/31 10:13:10;;;;;;;2.20;1.10;;;;;;;-141.23;100.00;62281.09;5056327;28;20502;-79
2023/07/31 10:15:37;;;;;;;3.53;1.02;;;;;;;-141.23;100.00;62281.09;5040326;28;20044;-79
2023/07/31 10:18:06;;;;;;;2.20;1.00;;;;;;;-141.23;100.00;62281.09;5073272;28;20064;-79
2023/07/31 10:20:33;;;;;;;1.83;1.02;;;;;;;-141.23;100.00;62281.09;5056487;28;20040;-79
2023/07/31 10:22:59;;;;;;;3.33;1.20;;;;;;;-141.23;100.00;62281.09;5040009;28;20041;-77
2023/07/31 10:25:26;;;;;;;4.07;1.10;;;;;;;-141.23;100.00;62281.09;5039804;28;20044;-79
2023/07/31 10:27:53;;;;;;;3.50;1.50;;;;;;;-141.23;100.00;62281.09;5057282;28;20071;-79
2023/07/31 10:30:21;;;;;;;1.10;1.00;;;;;;;-141.23;100.00;62281.09;5037380;28;20104;-76
2023/07/31 10:32:49;;;;;;;3.27;1.30;;;;;;;-141.23;100.00;62281.09;5054163;28;20110;-78
2023/07/31 10:35:16;;;;;;;2.25;1.30;;;;;;;-141.23;100.00;62281.09;5054390;28;20045;-78
2023/07/31 10:37:43;;;;;;;1.50;1.40;;;;;;;-141.23;100.00;62281.09;5037547;28;20040;-78
2023/07/31 10:40:10;;;;;;;3.13;1.40;;;;;;;-141.23;100.00;62281.09;5037584;28;20052;-78
2023/07/31 10:42:39;;;;;;;4.63;1.40;;;;;;;-141.23;100.00;62281.09;5058571;28;20052;-74
2023/07/31 10:45:07;;;;;;;4.07;1.70;;;;;;;-141.23;100.00;62281.09;5062000;28;20040;-78
2023/07/31 10:47:39;;;;;;;2.88;1.60;;;;;;;-141.23;100.00;62281.09;5057059;28;20287;-78
2023/07/31 10:50:23;;;;;;;3.90;1.58;;;;;;;-141.23;100.00;62281.09;5021272;28;20049;-78
2023/07/31 10:52:57;;;;;;;3.45;1.92;;;;;;;-141.23;100.00;62281.09;5032663;28;20530;-72
2023/07/31 10:55:40;;;;;;;3.00;1.70;;;;;;;-141.23;100.00;62281.09;4983604;28;20052;-78
2023/07/31 10:58:16;;;;;;;3.35;2.10;;;;;;;-141.23;100.00;62281.09;5052462;28;20056;-78
2023/07/31 11:00:44;;;;;;;1.92;1.70;;;;;;;-141.23;100.00;62281.09;5035784;28;20052;-78
2023/07/31 11:03:17;;;;;;;9.90;1.63;;;;;;;-141.23;100.00;62281.09;5052434;28;20139;-78
2023/07/31 11:05:58;;;;;;;3.40;1.67;;;;;;;-141.23;100.00;62281.09;4999858;28;20060;-78
2023/07/31 11:08:28;;;;;;;2.55;1.73;;;;;;;-141.23;100.00;62281.09;4999639;28;20057;-78